createdAt,value
2022-10-08T00:02:44.942Z,49.71
2022-10-08T00:05:35.138Z,49.74
2022-10-08T00:08:26.024Z,49.74
2022-10-08T00:11:18.888Z,49.82
2022-10-08T00:14:08.963Z,49.78
2022-10-08T00:16:58.798Z,49.80
2022-10-08T00:19:48.734Z,49.73
2022-10-08T00:22:38.833Z,49.75
2022-10-08T00:25:28.981Z,49.75
2022-10-08T00:28:18.970Z,49.80
2022-10-08T00:31:10.648Z,49.78
2022-10-08T00:34:03.707Z,49.78
2022-10-08T00:36:54.479Z,49.76
2022-10-08T00:39:44.311Z,49.79
2022-10-08T00:42:34.299Z,49.77
2022-10-08T00:45:24.546Z,49.84
2022-10-08T00:48:20.571Z,49.78
2022-10-08T00:51:10.929Z,49.78
2022-10-08T00:54:01.562Z,49.83
2022-10-08T00:56:53.629Z,49.86
2022-10-08T00:59:43.537Z,49.83
2022-10-08T01:02:33.394Z,49.85
2022-10-08T01:05:29.977Z,49.84
2022-10-08T01:08:27.509Z,49.81
2022-10-08T01:11:33.938Z,49.80
2022-10-08T01:14:32.139Z,49.80
2022-10-08T01:17:26.160Z,49.80
2022-10-08T01:20:41.850Z,49.79
2022-10-08T01:23:54.075Z,49.78
2022-10-08T01:26:55.632Z,49.75
2022-10-08T01:29:46.786Z,49.77
2022-10-08T01:32:39.043Z,49.82
2022-10-08T01:35:30.687Z,49.82
2022-10-08T01:38:20.735Z,49.83
2022-10-08T01:41:11.152Z,49.85
2022-10-08T01:44:04.224Z,49.84
2022-10-08T01:46:56.361Z,49.89
2022-10-08T01:49:50.413Z,49.86
2022-10-08T01:52:43.034Z,49.86
2022-10-08T01:55:37.751Z,49.86
2022-10-08T01:58:31.878Z,49.90
2022-10-08T02:01:29.453Z,49.89
2022-10-08T02:04:35.118Z,49.87
2022-10-08T02:07:28.237Z,49.83
2022-10-08T02:10:19.678Z,49.88
2022-10-08T02:13:09.616Z,49.89
2022-10-08T02:16:06.343Z,49.94
2022-10-08T02:18:58.801Z,49.96
2022-10-08T02:21:52.110Z,49.96
2022-10-08T02:24:44.325Z,49.93
2022-10-08T02:27:42.749Z,49.95
2022-10-08T02:30:38.029Z,49.94
2022-10-08T02:33:31.001Z,49.98
2022-10-08T02:36:23.156Z,49.96
2022-10-08T02:39:13.958Z,49.93
2022-10-08T02:42:06.555Z,49.95
2022-10-08T02:44:58.791Z,50.03
2022-10-08T02:47:50.867Z,50.01
2022-10-08T02:50:42.486Z,50.02
2022-10-08T02:53:32.347Z,50.04
2022-10-08T02:56:24.997Z,50.00
2022-10-08T02:59:15.045Z,50.03
2022-10-08T03:02:06.165Z,50.03
2022-10-08T03:04:58.725Z,50.08
2022-10-08T03:07:49.893Z,50.04
2022-10-08T03:10:40.003Z,50.08
2022-10-08T03:13:29.861Z,50.13
2022-10-08T03:16:22.535Z,50.13
2022-10-08T03:19:14.170Z,50.12
2022-10-08T03:22:04.257Z,50.14
2022-10-08T03:24:56.841Z,50.17
2022-10-08T03:27:46.956Z,50.15
2022-10-08T03:30:37.130Z,50.18
2022-10-08T03:33:27.188Z,50.20
2022-10-08T03:36:17.090Z,50.21
2022-10-08T03:39:06.949Z,50.28
2022-10-08T03:41:56.797Z,50.25
2022-10-08T03:44:46.634Z,50.26
2022-10-08T03:47:36.500Z,50.29
2022-10-08T03:50:26.457Z,50.30
2022-10-08T03:53:16.326Z,50.29
2022-10-08T03:56:08.447Z,50.31
2022-10-08T03:58:59.352Z,50.29
2022-10-08T04:01:49.456Z,50.31
2022-10-08T04:04:39.379Z,50.30
2022-10-08T04:07:29.304Z,50.31
2022-10-08T04:10:19.172Z,50.29
2022-10-08T04:13:09.062Z,50.27
2022-10-08T04:16:02.795Z,50.33
2022-10-08T04:18:52.926Z,50.35
2022-10-08T04:21:42.828Z,50.37
2022-10-08T04:24:32.970Z,50.39
2022-10-08T04:27:23.007Z,50.41
2022-10-08T04:30:14.546Z,50.42
2022-10-08T04:33:04.755Z,50.45
2022-10-08T04:35:59.693Z,50.49
2022-10-08T04:38:50.664Z,50.44
2022-10-08T04:41:40.520Z,50.46
2022-10-08T04:44:30.385Z,50.47
2022-10-08T04:47:20.239Z,50.45
2022-10-08T04:50:10.867Z,50.44
2022-10-08T04:53:00.699Z,50.50
2022-10-08T04:55:50.564Z,50.51
2022-10-08T04:58:40.517Z,50.54
2022-10-08T05:01:30.592Z,50.54
2022-10-08T05:04:20.690Z,50.51
2022-10-08T05:07:10.622Z,50.52
2022-10-08T05:10:00.463Z,50.55
2022-10-08T05:12:50.401Z,50.59
2022-10-08T05:15:43.366Z,50.57
2022-10-08T05:18:33.736Z,50.60
2022-10-08T05:21:26.728Z,50.66
2022-10-08T05:24:16.628Z,50.66
2022-10-08T05:27:06.597Z,50.66
2022-10-08T05:29:56.539Z,50.69
2022-10-08T05:32:46.760Z,50.69
2022-10-08T05:35:39.317Z,50.69
2022-10-08T05:38:34.097Z,50.65
2022-10-08T05:41:26.735Z,50.69
2022-10-08T05:44:16.758Z,50.69
2022-10-08T05:47:06.813Z,50.71
2022-10-08T05:49:58.018Z,50.78
2022-10-08T05:52:48.311Z,50.79
2022-10-08T05:55:38.680Z,50.86
2022-10-08T05:58:30.498Z,50.90
2022-10-08T06:01:22.604Z,51.04
2022-10-08T06:04:12.629Z,51.15
2022-10-08T06:07:02.941Z,51.16
2022-10-08T06:09:52.967Z,51.69
2022-10-08T06:12:42.998Z,52.17
2022-10-08T06:15:32.930Z,52.62
2022-10-08T06:18:23.250Z,52.85
2022-10-08T06:21:15.310Z,52.96
2022-10-08T06:24:09.859Z,53.03
2022-10-08T06:27:00.102Z,53.31
2022-10-08T06:29:50.107Z,53.38
2022-10-08T06:32:40.213Z,53.58
2022-10-08T06:35:31.386Z,53.53
2022-10-08T06:38:22.555Z,53.56
2022-10-08T06:41:12.601Z,53.73
2022-10-08T06:44:02.610Z,53.64
2022-10-08T06:46:52.598Z,53.75
2022-10-08T06:49:42.581Z,53.79
2022-10-08T06:52:32.541Z,53.80
2022-10-08T06:55:22.555Z,53.75
2022-10-08T06:58:12.674Z,53.69
2022-10-08T07:01:07.511Z,53.67
2022-10-08T07:03:59.952Z,53.71
2022-10-08T07:06:50.017Z,53.72
2022-10-08T07:09:40.502Z,53.55
2022-10-08T07:12:32.149Z,53.50
2022-10-08T07:15:22.066Z,53.52
2022-10-08T07:18:12.333Z,53.03
2022-10-08T07:21:02.255Z,52.66
2022-10-08T07:23:52.909Z,52.43
2022-10-08T07:26:43.229Z,52.34
2022-10-08T07:29:33.360Z,52.15
2022-10-08T07:32:23.508Z,52.08
2022-10-08T07:35:17.736Z,51.95
2022-10-08T07:38:10.448Z,51.91
2022-10-08T07:41:02.611Z,51.83
2022-10-08T07:43:57.832Z,51.97
2022-10-08T07:46:49.484Z,51.93
2022-10-08T07:49:40.313Z,51.93
2022-10-08T07:52:33.087Z,51.97
2022-10-08T07:55:23.023Z,51.99
2022-10-08T07:58:13.101Z,51.93
2022-10-08T08:01:08.056Z,51.94
2022-10-08T08:04:01.585Z,51.84
2022-10-08T08:06:52.515Z,51.75
2022-10-08T08:09:42.573Z,51.66
2022-10-08T08:12:32.981Z,51.60
2022-10-08T08:15:23.320Z,51.35
2022-10-08T08:18:13.195Z,51.29
2022-10-08T08:21:05.494Z,51.17
2022-10-08T08:23:56.973Z,51.13
2022-10-08T08:26:46.836Z,51.11
2022-10-08T08:29:36.752Z,51.13
2022-10-08T08:32:28.669Z,51.22
2022-10-08T08:35:19.012Z,51.13
2022-10-08T08:38:09.016Z,51.08
2022-10-08T08:41:12.792Z,51.09
2022-10-08T08:44:09.999Z,51.06
2022-10-08T08:47:04.356Z,50.98
2022-10-08T08:49:57.003Z,50.96
2022-10-08T08:52:47.688Z,50.98
2022-10-08T08:55:40.565Z,50.98
2022-10-08T08:58:39.878Z,50.99
2022-10-08T09:01:35.844Z,51.03
2022-10-08T09:04:33.188Z,51.07
2022-10-08T09:07:25.728Z,51.06
2022-10-08T09:10:18.434Z,51.13
2022-10-08T09:13:14.418Z,51.10
2022-10-08T09:16:04.845Z,51.07
2022-10-08T09:18:54.969Z,51.05
2022-10-08T09:21:44.955Z,51.10
2022-10-08T09:24:36.038Z,51.13
2022-10-08T09:27:27.822Z,51.09
2022-10-08T09:30:42.239Z,51.05
2022-10-08T09:33:32.398Z,51.26
2022-10-08T09:36:35.608Z,51.42
2022-10-08T09:39:27.419Z,51.48
2022-10-08T09:42:18.199Z,51.59
2022-10-08T09:45:33.645Z,51.62
2022-10-08T09:48:26.338Z,51.65
2022-10-08T09:51:17.055Z,51.66
2022-10-08T09:54:10.225Z,51.67
2022-10-08T09:57:00.522Z,51.65
2022-10-08T09:59:52.221Z,51.66
2022-10-08T10:02:43.305Z,51.69
2022-10-08T10:05:34.775Z,51.72
2022-10-08T10:09:00.688Z,51.70
2022-10-08T10:11:52.525Z,51.66
2022-10-08T10:14:46.113Z,51.66
2022-10-08T10:17:38.366Z,51.65
2022-10-08T10:20:30.408Z,51.66
2022-10-08T10:23:22.392Z,51.65
2022-10-08T10:26:14.926Z,51.65
2022-10-08T10:29:09.234Z,51.68
2022-10-08T10:32:02.407Z,51.68
2022-10-08T10:35:02.565Z,51.69
2022-10-08T10:37:58.200Z,51.67
2022-10-08T10:40:49.893Z,51.78
2022-10-08T10:43:45.968Z,51.90
2022-10-08T10:46:41.268Z,51.81
2022-10-08T10:49:34.695Z,51.55
2022-10-08T10:52:46.521Z,51.42
2022-10-08T10:55:40.035Z,51.38
2022-10-08T10:58:42.044Z,51.36
2022-10-08T11:01:37.793Z,51.49
2022-10-08T11:04:41.024Z,51.38
2022-10-08T11:08:01.272Z,51.37
2022-10-08T11:11:02.759Z,51.32
2022-10-08T11:14:04.084Z,51.20
2022-10-08T11:17:02.401Z,51.22
2022-10-08T11:19:58.834Z,51.15
2022-10-08T11:22:53.337Z,51.08
2022-10-08T11:26:11.104Z,50.91
2022-10-08T11:29:06.474Z,50.89
2022-10-08T11:31:56.390Z,50.77
2022-10-08T11:34:49.729Z,50.71
2022-10-08T11:37:42.962Z,50.54
2022-10-08T11:40:36.361Z,50.51
2022-10-08T11:43:30.441Z,50.49
2022-10-08T11:46:29.155Z,50.43
2022-10-08T11:49:52.384Z,50.32
2022-10-08T11:52:42.256Z,50.33
2022-10-08T11:55:36.180Z,50.29
2022-10-08T11:58:28.629Z,50.42
2022-10-08T12:01:18.473Z,50.51
2022-10-08T12:04:19.120Z,50.60
2022-10-08T12:07:21.799Z,50.61
2022-10-08T12:10:31.799Z,50.61
2022-10-08T12:13:31.138Z,50.69
2022-10-08T12:16:21.130Z,50.67
2022-10-08T12:19:48.904Z,50.72
2022-10-08T12:23:02.880Z,50.78
2022-10-08T12:26:10.996Z,51.01
2022-10-08T12:29:01.767Z,51.24
2022-10-08T12:31:56.330Z,51.20
2022-10-08T12:34:46.420Z,51.37
2022-10-08T12:37:56.884Z,51.39
2022-10-08T12:40:52.966Z,51.33
2022-10-08T12:43:43.012Z,51.30
2022-10-08T12:46:37.978Z,51.24
2022-10-08T12:49:31.456Z,51.31
2022-10-08T12:52:21.841Z,51.40
2022-10-08T12:55:16.499Z,51.53
2022-10-08T12:58:06.567Z,51.60
2022-10-08T13:00:58.214Z,51.59
2022-10-08T13:03:48.376Z,51.65
2022-10-08T13:06:38.251Z,51.62
2022-10-08T13:09:30.171Z,51.60
2022-10-08T13:12:20.098Z,51.53
2022-10-08T13:15:24.580Z,51.60
2022-10-08T13:18:20.419Z,51.56
2022-10-08T13:21:27.545Z,51.62
2022-10-08T13:24:38.740Z,51.63
2022-10-08T13:27:29.289Z,51.61
2022-10-08T13:30:30.345Z,51.56
2022-10-08T13:33:21.873Z,51.58
2022-10-08T13:36:11.813Z,51.58
2022-10-08T13:39:01.795Z,51.52
2022-10-08T13:41:53.751Z,51.45
2022-10-08T13:44:43.957Z,51.41
2022-10-08T13:47:33.872Z,51.40
2022-10-08T13:50:24.018Z,51.38
2022-10-08T13:53:14.446Z,51.35
2022-10-08T13:56:04.884Z,51.31
2022-10-08T13:58:54.830Z,51.36
2022-10-08T14:01:45.005Z,51.35
2022-10-08T14:04:34.964Z,51.28
2022-10-08T14:07:27.276Z,51.34
2022-10-08T14:10:18.414Z,51.33
2022-10-08T14:13:10.130Z,51.24
2022-10-08T14:16:00.048Z,51.23
2022-10-08T14:18:50.418Z,51.20
2022-10-08T14:21:40.613Z,51.23
2022-10-08T14:24:30.495Z,51.24
2022-10-08T14:27:20.402Z,51.24
2022-10-08T14:30:13.317Z,51.22
2022-10-08T14:33:05.579Z,51.26
2022-10-08T14:35:59.179Z,51.30
2022-10-08T14:38:57.072Z,51.31
2022-10-08T14:41:47.332Z,51.30
2022-10-08T14:44:37.228Z,51.28
2022-10-08T14:47:27.161Z,51.29
2022-10-08T14:50:17.476Z,51.33
2022-10-08T14:53:07.397Z,51.32
2022-10-08T14:56:11.536Z,51.35
2022-10-08T14:59:02.347Z,51.33
2022-10-08T15:01:52.296Z,51.36
2022-10-08T15:04:42.368Z,51.40
2022-10-08T15:07:32.351Z,51.42
2022-10-08T15:10:22.824Z,51.47
2022-10-08T15:13:13.116Z,51.60
2022-10-08T15:16:03.089Z,51.77
2022-10-08T15:18:53.030Z,51.81
2022-10-08T15:21:43.377Z,52.14
2022-10-08T15:24:33.346Z,52.41
2022-10-08T15:27:23.256Z,52.31
2022-10-08T15:30:14.776Z,52.20
2022-10-08T15:33:05.415Z,52.46
2022-10-08T15:35:55.833Z,52.40
2022-10-08T15:38:46.438Z,52.42
2022-10-08T15:41:37.659Z,52.40
2022-10-08T15:44:28.789Z,52.38
2022-10-08T15:47:19.786Z,52.26
2022-10-08T15:50:10.741Z,52.22
2022-10-08T15:53:01.507Z,52.14
2022-10-08T15:55:56.371Z,52.08
2022-10-08T15:58:50.952Z,52.19
2022-10-08T16:01:41.749Z,52.24
2022-10-08T16:04:31.769Z,52.09
2022-10-08T16:07:22.862Z,51.73
2022-10-08T16:10:12.753Z,51.28
2022-10-08T16:13:02.670Z,50.75
2022-10-08T16:15:52.579Z,50.31
2022-10-08T16:18:42.579Z,49.90
2022-10-08T16:21:39.044Z,49.64
2022-10-08T16:24:32.090Z,49.45
2022-10-08T16:27:22.053Z,49.41
2022-10-08T16:30:17.668Z,49.42
2022-10-08T16:33:16.517Z,49.53
2022-10-08T16:36:17.856Z,49.35
2022-10-08T16:39:17.918Z,49.21
2022-10-08T16:42:16.924Z,49.03
2022-10-08T16:45:48.306Z,48.96
2022-10-08T16:48:40.352Z,48.94
2022-10-08T16:51:37.982Z,48.66
2022-10-08T16:54:33.448Z,48.47
2022-10-08T16:57:32.232Z,48.30
2022-10-08T17:01:10.925Z,48.08
2022-10-08T17:04:10.231Z,48.17
2022-10-08T17:07:14.710Z,48.03
2022-10-08T17:10:12.821Z,47.89
2022-10-08T17:13:35.694Z,47.73
2022-10-08T17:16:55.665Z,47.65
2022-10-08T17:20:18.152Z,47.64
2022-10-08T17:23:37.930Z,47.97
2022-10-08T17:26:31.865Z,48.54
2022-10-08T17:29:38.970Z,48.80
2022-10-08T17:32:42.782Z,49.04
2022-10-08T17:35:54.895Z,49.17
2022-10-08T17:39:14.366Z,49.23
2022-10-08T17:42:07.297Z,49.30
2022-10-08T17:45:32.338Z,49.40
2022-10-08T17:48:40.808Z,49.44
2022-10-08T17:51:40.923Z,49.50
2022-10-08T17:54:45.636Z,49.57
2022-10-08T17:58:00.397Z,49.63
2022-10-08T18:01:03.042Z,49.66
2022-10-08T18:04:11.279Z,49.71
2022-10-08T18:07:03.646Z,49.71
2022-10-08T18:10:02.363Z,49.73
2022-10-08T18:12:56.247Z,49.75
2022-10-08T18:15:53.484Z,49.77
2022-10-08T18:18:50.326Z,49.77
2022-10-08T18:22:00.355Z,49.78
2022-10-08T18:25:49.279Z,49.81
2022-10-08T18:28:54.442Z,49.82
2022-10-08T18:31:48.757Z,49.85
2022-10-08T18:34:53.004Z,49.84
2022-10-08T18:38:18.607Z,49.85
2022-10-08T18:42:15.513Z,49.85
2022-10-08T18:45:08.670Z,49.86
2022-10-08T18:48:18.998Z,49.89
2022-10-08T18:51:10.665Z,49.87
2022-10-08T18:54:04.901Z,49.85
2022-10-08T18:56:58.666Z,49.87
2022-10-08T18:59:53.286Z,49.92
2022-10-08T19:03:00.692Z,49.91
2022-10-08T19:06:38.992Z,49.93
2022-10-08T19:09:13.576Z,49.93
2022-10-08T19:12:46.485Z,49.93
2022-10-08T19:16:05.924Z,49.84
2022-10-08T19:19:12.460Z,49.72
2022-10-08T19:22:34.609Z,49.62
2022-10-08T19:25:54.228Z,49.57
2022-10-08T19:29:01.518Z,49.54
2022-10-08T19:32:10.828Z,49.47
2022-10-08T19:35:22.302Z,49.48
2022-10-08T19:38:35.441Z,49.45
2022-10-08T19:41:30.469Z,49.44
2022-10-08T19:45:01.871Z,49.42
2022-10-08T19:48:32.159Z,49.40
2022-10-08T19:51:46.225Z,49.36
2022-10-08T19:55:53.783Z,49.37
2022-10-08T20:04:49.135Z,49.40
2022-10-08T20:08:23.975Z,49.36
2022-10-08T20:11:38.598Z,49.25
2022-10-08T20:15:29.536Z,49.26
2022-10-08T20:19:26.742Z,49.19
2022-10-08T20:22:52.377Z,49.11
2022-10-08T20:27:10.378Z,49.07
2022-10-08T20:33:58.014Z,49.04
2022-10-08T20:34:31.378Z,49.01
2022-10-08T20:38:54.347Z,48.97
2022-10-08T20:41:51.294Z,48.97
2022-10-08T20:45:08.316Z,49.15
2022-10-08T20:48:06.855Z,49.30
2022-10-08T20:51:22.198Z,49.36
2022-10-08T20:54:58.940Z,49.41
2022-10-08T20:58:32.532Z,49.57
2022-10-08T21:01:51.893Z,49.59
2022-10-08T21:05:15.409Z,49.75
2022-10-08T21:14:09.592Z,49.73
2022-10-08T21:17:01.385Z,49.45
2022-10-08T21:18:21.543Z,49.78
2022-10-08T21:19:51.652Z,49.20
2022-10-08T21:22:43.294Z,49.38
2022-10-08T21:25:38.459Z,49.52
2022-10-08T21:28:31.435Z,49.54
2022-10-08T21:31:23.867Z,49.68
2022-10-08T21:34:17.153Z,49.77
2022-10-08T21:37:09.338Z,49.93
2022-10-08T21:40:02.605Z,49.91
2022-10-08T21:42:52.632Z,49.85
2022-10-08T21:45:42.824Z,50.04
2022-10-08T21:48:33.336Z,50.12
2022-10-08T21:51:34.309Z,50.08
2022-10-08T21:54:25.695Z,50.15
2022-10-08T21:57:16.542Z,50.22
2022-10-08T22:00:11.822Z,50.25
2022-10-08T22:03:02.931Z,50.29
2022-10-08T22:05:54.660Z,50.27
2022-10-08T22:08:46.601Z,50.23
2022-10-08T22:11:36.808Z,50.20
2022-10-08T22:14:29.356Z,50.16
2022-10-08T22:17:19.512Z,50.18
2022-10-08T22:20:10.791Z,50.21
2022-10-08T22:23:01.882Z,50.20
2022-10-08T22:25:55.818Z,50.22
2022-10-08T22:28:46.324Z,50.24
2022-10-08T22:31:42.530Z,50.18
2022-10-08T22:34:31.834Z,50.14
2022-10-08T22:37:21.750Z,50.12
2022-10-08T22:40:14.136Z,50.15
2022-10-08T22:43:04.039Z,50.14
2022-10-08T22:45:54.240Z,50.10
2022-10-08T22:48:44.416Z,50.11
2022-10-08T22:51:34.641Z,50.14
2022-10-08T22:54:25.219Z,50.13
2022-10-08T22:57:15.809Z,50.13
2022-10-08T23:00:11.355Z,50.10
2022-10-08T23:03:01.564Z,50.09
2022-10-08T23:06:00.965Z,50.15
2022-10-08T23:08:55.811Z,50.12
2022-10-08T23:11:48.449Z,50.09
2022-10-08T23:14:38.445Z,50.11
2022-10-08T23:17:28.333Z,50.02
2022-10-08T23:20:18.693Z,50.02
2022-10-08T23:23:08.570Z,49.96
2022-10-08T23:26:00.179Z,49.99
2022-10-08T23:28:53.503Z,50.00
2022-10-08T23:31:43.913Z,49.89
2022-10-08T23:34:34.000Z,49.92
2022-10-08T23:37:24.034Z,49.90
2022-10-08T23:40:20.000Z,49.85
2022-10-08T23:43:11.321Z,49.77
2022-10-08T23:46:01.289Z,49.72
2022-10-08T23:48:51.908Z,49.73
2022-10-08T23:51:41.818Z,49.72
2022-10-08T23:54:31.774Z,49.72
2022-10-08T23:57:21.888Z,49.72
